createdAt,value
2019-04-28T00:00:56.252Z,11.30
2019-04-28T00:03:34.590Z,11.30
2019-04-28T00:06:12.051Z,11.30
2019-04-28T00:08:51.636Z,11.30
2019-04-28T00:11:29.373Z,11.30
2019-04-28T00:14:08.484Z,11.30
2019-04-28T00:16:45.978Z,11.30
2019-04-28T00:19:25.444Z,11.30
2019-04-28T00:22:18.456Z,11.30
2019-04-28T00:25:08.134Z,11.40
2019-04-28T00:27:45.541Z,11.40
2019-04-28T00:30:23.026Z,11.40
2019-04-28T00:33:01.795Z,11.40
2019-04-28T00:35:41.830Z,11.40
2019-04-28T00:38:21.483Z,11.40
2019-04-28T00:40:58.919Z,11.40
2019-04-28T00:43:36.665Z,11.40
2019-04-28T00:46:16.071Z,11.40
2019-04-28T00:48:54.998Z,11.40
2019-04-28T00:51:32.438Z,11.40
2019-04-28T00:54:09.745Z,11.50
2019-04-28T00:56:51.748Z,11.40
2019-04-28T00:59:29.295Z,11.40
2019-04-28T01:02:12.535Z,11.40
2019-04-28T01:04:51.325Z,11.40
2019-04-28T01:07:28.667Z,11.40
2019-04-28T01:10:06.941Z,11.40
2019-04-28T01:12:46.627Z,11.40
2019-04-28T01:15:45.265Z,11.40
2019-04-28T01:18:29.971Z,11.40
2019-04-28T01:21:07.375Z,11.40
2019-04-28T01:23:44.677Z,11.40
2019-04-28T01:26:21.783Z,11.30
2019-04-28T01:28:59.702Z,11.40
2019-04-28T01:31:44.463Z,11.40
2019-04-28T01:34:23.334Z,11.40
2019-04-28T01:37:00.874Z,11.50
2019-04-28T01:39:41.066Z,11.40
2019-04-28T01:42:17.202Z,11.40
2019-04-28T01:44:55.156Z,11.40
2019-04-28T01:47:35.322Z,11.40
2019-04-28T01:50:12.570Z,11.40
2019-04-28T01:52:51.571Z,11.40
2019-04-28T01:55:29.590Z,11.40
2019-04-28T01:58:06.820Z,11.40
2019-04-28T02:00:44.115Z,11.30
2019-04-28T02:03:21.689Z,11.30
2019-04-28T02:06:00.195Z,11.30
2019-04-28T02:08:39.739Z,11.20
2019-04-28T02:11:17.105Z,11.10
2019-04-28T02:13:54.232Z,11.10
2019-04-28T02:16:31.658Z,11.10
2019-04-28T02:19:10.643Z,11.00
2019-04-28T02:21:59.493Z,11.00
2019-04-28T02:24:37.545Z,10.90
2019-04-28T02:27:14.791Z,10.80
2019-04-28T02:29:51.956Z,10.80
2019-04-28T02:32:31.009Z,10.80
2019-04-28T02:35:10.613Z,10.80
2019-04-28T02:37:50.023Z,10.80
2019-04-28T02:40:26.648Z,10.80
2019-04-28T02:43:03.845Z,10.70
2019-04-28T02:45:41.510Z,10.80
2019-04-28T02:48:23.525Z,10.70
2019-04-28T02:51:06.215Z,10.70
2019-04-28T02:53:46.701Z,10.70
2019-04-28T02:56:23.836Z,10.70
2019-04-28T02:59:01.207Z,10.60
2019-04-28T03:01:40.899Z,10.60
2019-04-28T03:04:20.134Z,10.60
2019-04-28T03:06:56.566Z,10.60
2019-04-28T03:09:33.907Z,10.60
2019-04-28T03:12:11.633Z,10.60
2019-04-28T03:14:50.530Z,10.60
2019-04-28T03:17:30.674Z,10.60
2019-04-28T03:20:07.243Z,10.70
2019-04-28T03:22:45.034Z,10.60
2019-04-28T03:25:33.512Z,10.70
2019-04-28T03:28:21.699Z,10.60
2019-04-28T03:31:47.121Z,10.60
2019-04-28T03:33:57.947Z,10.50
2019-04-28T03:36:35.135Z,10.40
2019-04-28T03:39:12.855Z,10.30
2019-04-28T03:41:50.271Z,10.30
2019-04-28T03:44:30.909Z,10.30
2019-04-28T03:47:07.293Z,10.30
2019-04-28T03:49:44.513Z,10.30
2019-04-28T03:52:22.261Z,10.30
2019-04-28T03:55:00.515Z,10.30
2019-04-28T03:57:41.026Z,10.30
2019-04-28T04:00:17.562Z,10.30
2019-04-28T04:02:54.824Z,10.30
2019-04-28T04:05:32.082Z,10.30
2019-04-28T04:08:11.007Z,10.20
2019-04-28T04:11:16.203Z,10.20
2019-04-28T04:14:12.747Z,10.20
2019-04-28T04:17:11.774Z,10.20
2019-04-28T04:19:50.328Z,10.20
2019-04-28T04:22:28.074Z,10.20
2019-04-28T04:25:08.770Z,10.20
2019-04-28T04:27:44.856Z,10.20
2019-04-28T04:30:22.028Z,10.20
2019-04-28T04:33:01.336Z,10.20
2019-04-28T04:35:41.176Z,10.30
2019-04-28T04:38:17.686Z,10.20
2019-04-28T04:40:54.896Z,10.30
2019-04-28T04:43:33.095Z,10.30
2019-04-28T04:46:22.050Z,10.30
2019-04-28T04:49:00.619Z,10.30
2019-04-28T04:51:40.763Z,10.30
2019-04-28T04:54:17.085Z,10.30
2019-04-28T04:56:54.682Z,10.30
2019-04-28T04:59:33.730Z,10.30
2019-04-28T05:02:51.565Z,10.30
2019-04-28T05:05:30.323Z,10.30
2019-04-28T05:08:07.936Z,10.30
2019-04-28T05:10:45.306Z,10.30
2019-04-28T05:13:23.560Z,10.30
2019-04-28T05:16:00.807Z,10.20
2019-04-28T05:18:39.340Z,10.20
2019-04-28T05:21:21.568Z,10.30
2019-04-28T05:24:20.265Z,10.30
2019-04-28T05:26:59.429Z,10.30
2019-04-28T05:29:36.964Z,10.30
2019-04-28T05:32:14.228Z,10.30
2019-04-28T05:34:52.968Z,10.30
2019-04-28T05:37:30.458Z,10.30
2019-04-28T05:40:07.922Z,10.30
2019-04-28T05:43:01.253Z,10.30
2019-04-28T05:45:39.718Z,10.40
2019-04-28T05:48:20.288Z,10.50
2019-04-28T05:51:04.179Z,10.50
2019-04-28T05:53:47.160Z,10.60
2019-04-28T05:57:02.469Z,10.60
2019-04-28T05:59:51.064Z,10.70
2019-04-28T06:02:32.739Z,10.80
2019-04-28T06:05:10.232Z,10.90
2019-04-28T06:08:10.351Z,10.90
2019-04-28T06:10:49.806Z,11.00
2019-04-28T06:13:27.741Z,11.00
2019-04-28T06:16:06.441Z,11.10
2019-04-28T06:18:47.054Z,11.10
2019-04-28T06:21:24.773Z,11.10
2019-04-28T06:24:02.052Z,11.10
2019-04-28T06:26:39.502Z,11.20
2019-04-28T06:29:20.175Z,11.30
2019-04-28T06:31:57.966Z,11.30
2019-04-28T06:34:35.510Z,11.30
2019-04-28T06:37:13.596Z,11.40
2019-04-28T06:39:50.756Z,11.40
2019-04-28T06:42:28.141Z,11.40
2019-04-28T06:45:07.573Z,11.40
2019-04-28T06:47:44.914Z,11.40
2019-04-28T06:50:23.098Z,11.50
2019-04-28T06:53:02.903Z,11.50
2019-04-28T06:55:39.752Z,11.70
2019-04-28T06:58:17.443Z,11.80
2019-04-28T07:00:54.490Z,11.90
2019-04-28T07:03:31.806Z,11.90
2019-04-28T07:06:09.296Z,12.00
2019-04-28T07:08:46.994Z,11.90
2019-04-28T07:11:27.302Z,11.90
2019-04-28T07:14:05.098Z,11.90
2019-04-28T07:16:42.314Z,11.80
2019-04-28T07:19:20.501Z,11.80
2019-04-28T07:22:07.114Z,11.80
2019-04-28T07:24:44.968Z,11.80
2019-04-28T07:27:22.597Z,11.80
2019-04-28T07:29:59.896Z,11.40
2019-04-28T07:32:37.526Z,11.80
2019-04-28T07:35:14.900Z,11.70
2019-04-28T07:37:52.822Z,11.70
2019-04-28T07:40:30.673Z,11.70
2019-04-28T07:43:08.129Z,11.70
2019-04-28T07:45:45.401Z,11.70
2019-04-28T07:48:22.769Z,11.70
2019-04-28T07:50:59.990Z,11.80
2019-04-28T07:53:49.409Z,11.80
2019-04-28T07:56:26.657Z,11.90
2019-04-28T07:59:04.118Z,12.00
2019-04-28T08:01:41.312Z,12.00
2019-04-28T08:04:18.857Z,12.00
2019-04-28T08:06:56.489Z,12.00
2019-04-28T08:09:34.205Z,12.00
2019-04-28T08:12:11.565Z,12.00
2019-04-28T08:14:49.024Z,12.00
2019-04-28T08:17:26.149Z,12.00
2019-04-28T08:20:05.615Z,12.00
2019-04-28T08:22:42.343Z,12.00
2019-04-28T08:25:19.909Z,12.00
2019-04-28T08:27:57.174Z,11.90
2019-04-28T08:30:34.651Z,12.00
2019-04-28T08:33:34.462Z,12.10
2019-04-28T08:36:11.757Z,12.20
2019-04-28T08:38:50.031Z,12.20
2019-04-28T08:41:27.301Z,12.30
2019-04-28T08:44:04.493Z,12.30
2019-04-28T08:46:41.773Z,12.30
2019-04-28T08:49:19.404Z,12.30
2019-04-28T08:51:57.195Z,12.30
2019-04-28T08:54:34.558Z,12.30
2019-04-28T08:57:11.858Z,12.30
2019-04-28T08:59:49.573Z,12.40
2019-04-28T09:02:26.804Z,12.40
2019-04-28T09:05:05.454Z,12.60
2019-04-28T09:07:42.780Z,12.70
2019-04-28T09:10:21.260Z,12.70
2019-04-28T09:12:58.491Z,12.70
2019-04-28T09:15:35.705Z,12.70
2019-04-28T09:18:12.928Z,12.80
2019-04-28T09:20:50.125Z,12.80
2019-04-28T09:23:27.242Z,12.90
2019-04-28T09:26:04.859Z,12.90
2019-04-28T09:28:42.544Z,13.00
2019-04-28T09:31:19.715Z,13.10
2019-04-28T09:33:57.081Z,13.20
2019-04-28T09:36:34.221Z,13.30
2019-04-28T09:39:12.967Z,13.30
2019-04-28T09:42:09.183Z,13.30
2019-04-28T09:44:46.349Z,13.30
2019-04-28T09:47:23.469Z,13.40
2019-04-28T09:50:00.531Z,13.60
2019-04-28T09:52:38.745Z,13.70
2019-04-28T09:55:15.939Z,13.80
2019-04-28T09:57:54.900Z,13.90
2019-04-28T10:00:32.362Z,13.90
2019-04-28T10:03:09.660Z,13.90
2019-04-28T10:05:48.032Z,13.90
2019-04-28T10:08:25.657Z,14.00
2019-04-28T10:11:02.883Z,14.00
2019-04-28T10:13:40.137Z,14.10
2019-04-28T10:16:17.394Z,14.20
2019-04-28T10:18:54.701Z,14.30
2019-04-28T10:21:32.301Z,14.30
2019-04-28T10:24:09.610Z,14.20
2019-04-28T10:26:46.976Z,14.20
2019-04-28T10:29:24.048Z,14.00
2019-04-28T10:32:01.404Z,14.00
2019-04-28T10:34:39.258Z,14.00
2019-04-28T10:37:16.474Z,13.90
2019-04-28T10:40:00.313Z,13.90
2019-04-28T10:42:37.667Z,13.80
2019-04-28T10:45:18.652Z,13.70
2019-04-28T10:47:55.978Z,13.70
2019-04-28T10:50:33.344Z,13.70
2019-04-28T10:53:10.853Z,13.70
2019-04-28T10:55:48.431Z,13.70
2019-04-28T10:58:25.995Z,13.70
2019-04-28T11:01:03.189Z,13.70
2019-04-28T11:03:41.288Z,13.90
2019-04-28T11:06:18.445Z,13.90
2019-04-28T11:09:30.319Z,14.00
2019-04-28T11:11:59.995Z,14.00
2019-04-28T11:14:38.021Z,14.00
2019-04-28T11:17:15.748Z,13.90
2019-04-28T11:19:53.146Z,13.80
2019-04-28T11:22:30.455Z,13.80
2019-04-28T11:25:08.077Z,13.80
2019-04-28T11:27:45.505Z,13.90
2019-04-28T11:30:22.726Z,14.10
2019-04-28T11:33:15.673Z,14.10
2019-04-28T11:35:53.201Z,14.20
2019-04-28T11:38:30.349Z,14.20
2019-04-28T11:41:07.839Z,14.10
2019-04-28T11:43:45.428Z,14.10
2019-04-28T11:46:24.495Z,14.20
2019-04-28T11:49:01.926Z,14.30
2019-04-28T11:51:39.523Z,14.40
2019-04-28T11:54:17.379Z,14.50
2019-04-28T11:56:55.145Z,14.70
2019-04-28T11:59:32.392Z,14.90
2019-04-28T12:02:10.108Z,14.90
2019-04-28T12:04:47.659Z,14.90
2019-04-28T12:07:25.056Z,14.90
2019-04-28T12:10:11.927Z,14.70
2019-04-28T12:13:10.714Z,14.70
2019-04-28T12:16:02.535Z,14.70
2019-04-28T12:18:57.196Z,14.80
2019-04-28T12:21:34.931Z,15.00
2019-04-28T12:24:12.658Z,15.10
2019-04-28T12:26:49.926Z,15.10
2019-04-28T12:29:27.094Z,15.10
2019-04-28T12:32:04.594Z,15.10
2019-04-28T12:34:41.900Z,15.10
2019-04-28T12:37:19.261Z,15.20
2019-04-28T12:39:56.814Z,14.90
2019-04-28T12:42:34.314Z,14.80
2019-04-28T12:45:11.526Z,14.60
2019-04-28T12:47:48.988Z,14.50
2019-04-28T12:50:30.967Z,14.50
2019-04-28T12:53:08.996Z,14.30
2019-04-28T12:55:46.443Z,14.20
2019-04-28T12:58:24.753Z,14.20
2019-04-28T13:01:16.094Z,14.20
2019-04-28T13:04:18.423Z,14.10
2019-04-28T13:07:02.673Z,13.90
2019-04-28T13:09:40.399Z,13.70
2019-04-28T13:12:18.117Z,13.60
2019-04-28T13:14:55.855Z,13.50
2019-04-28T13:17:33.073Z,13.50
2019-04-28T13:20:10.685Z,13.40
2019-04-28T13:22:47.924Z,13.40
2019-04-28T13:25:25.215Z,13.40
2019-04-28T13:28:02.535Z,13.40
2019-04-28T13:30:39.847Z,13.30
2019-04-28T13:33:17.559Z,13.30
2019-04-28T13:35:55.237Z,13.40
2019-04-28T13:38:32.439Z,13.40
2019-04-28T13:41:12.351Z,13.30
2019-04-28T13:43:49.630Z,13.30
2019-04-28T13:46:27.210Z,13.30
2019-04-28T13:49:06.624Z,13.30
2019-04-28T13:51:44.691Z,13.30
2019-04-28T13:54:22.496Z,13.20
2019-04-28T13:56:59.783Z,13.20
2019-04-28T13:59:37.086Z,13.20
2019-04-28T14:02:22.139Z,13.10
2019-04-28T14:05:17.111Z,13.10
2019-04-28T14:07:54.351Z,12.90
2019-04-28T14:10:31.698Z,12.90
2019-04-28T14:13:09.786Z,12.90
2019-04-28T14:15:48.517Z,12.80
2019-04-28T14:18:29.248Z,12.80
2019-04-28T14:21:07.989Z,12.90
2019-04-28T14:23:45.581Z,13.00
2019-04-28T14:26:22.764Z,13.00
2019-04-28T14:29:00.062Z,13.10
2019-04-28T14:31:37.457Z,13.10
2019-04-28T14:34:14.793Z,13.00
2019-04-28T14:36:52.120Z,12.90
2019-04-28T14:39:29.913Z,12.90
2019-04-28T14:42:07.531Z,12.80
2019-04-28T14:44:44.888Z,12.80
2019-04-28T14:47:22.389Z,12.80
2019-04-28T14:50:02.673Z,12.80
2019-04-28T14:52:38.891Z,12.80
2019-04-28T14:55:16.136Z,12.90
2019-04-28T14:57:53.837Z,12.80
2019-04-28T15:00:37.202Z,12.80
2019-04-28T15:03:15.149Z,12.80
2019-04-28T15:06:04.014Z,12.70
2019-04-28T15:08:58.932Z,12.70
2019-04-28T15:11:43.848Z,12.70
2019-04-28T15:14:20.990Z,12.60
2019-04-28T15:16:58.410Z,12.60
2019-04-28T15:19:35.957Z,12.60
2019-04-28T15:22:13.842Z,12.60
2019-04-28T15:24:51.390Z,12.60
2019-04-28T15:27:28.895Z,12.70
2019-04-28T15:30:06.580Z,12.70
2019-04-28T15:32:43.918Z,12.70
2019-04-28T15:35:21.044Z,12.70
2019-04-28T15:37:58.427Z,12.70
2019-04-28T15:40:36.039Z,12.80
2019-04-28T15:43:13.834Z,12.90
2019-04-28T15:45:51.508Z,12.90
2019-04-28T15:48:29.455Z,12.80
2019-04-28T15:51:07.732Z,12.80
2019-04-28T15:53:49.036Z,12.70
2019-04-28T15:56:42.402Z,12.70
2019-04-28T15:59:21.745Z,12.60
2019-04-28T16:01:59.412Z,12.60
2019-04-28T16:04:36.805Z,12.50
2019-04-28T16:07:24.347Z,12.50
2019-04-28T16:09:53.118Z,12.40
2019-04-28T16:12:30.785Z,12.50
2019-04-28T16:15:09.673Z,12.50
2019-04-28T16:17:47.410Z,12.50
2019-04-28T16:20:25.107Z,12.40
2019-04-28T16:23:02.458Z,12.40
2019-04-28T16:25:40.234Z,12.40
2019-04-28T16:28:18.670Z,12.30
2019-04-28T16:30:57.044Z,12.30
2019-04-28T16:33:34.874Z,12.30
2019-04-28T16:36:12.555Z,12.20
2019-04-28T16:38:51.249Z,12.10
2019-04-28T16:41:29.178Z,12.10
2019-04-28T16:44:07.383Z,12.10
2019-04-28T16:46:44.785Z,12.10
2019-04-28T16:49:22.415Z,12.10
2019-04-28T16:51:59.768Z,12.10
2019-04-28T16:54:37.917Z,12.00
2019-04-28T16:57:36.787Z,12.00
2019-04-28T17:00:39.060Z,11.90
2019-04-28T17:03:16.623Z,11.90
2019-04-28T17:05:54.329Z,11.90
2019-04-28T17:08:31.641Z,11.90
2019-04-28T17:11:08.924Z,11.90
2019-04-28T17:13:47.216Z,11.90
2019-04-28T17:16:25.251Z,11.90
2019-04-28T17:19:02.845Z,11.80
2019-04-28T17:21:41.233Z,11.80
2019-04-28T17:24:19.121Z,11.80
2019-04-28T17:26:56.607Z,11.80
2019-04-28T17:29:34.280Z,11.80
2019-04-28T17:32:11.631Z,11.70
2019-04-28T17:34:48.868Z,11.70
2019-04-28T17:37:26.640Z,11.70
2019-04-28T17:40:04.891Z,11.70
2019-04-28T17:42:44.543Z,11.70
2019-04-28T17:45:22.166Z,11.70
2019-04-28T17:48:05.834Z,11.60
2019-04-28T17:50:46.380Z,11.50
2019-04-28T17:53:27.873Z,11.50
2019-04-28T17:56:10.210Z,11.40
2019-04-28T17:58:54.015Z,11.30
2019-04-28T18:01:53.314Z,11.30
2019-04-28T18:04:49.219Z,11.30
2019-04-28T18:07:35.583Z,11.20
2019-04-28T18:10:18.436Z,11.20
2019-04-28T18:13:00.842Z,11.20
2019-04-28T18:15:48.935Z,11.20
2019-04-28T18:18:42.840Z,11.20
2019-04-28T18:21:20.449Z,11.20
2019-04-28T18:23:58.844Z,11.20
2019-04-28T18:26:36.421Z,11.20
2019-04-28T18:29:13.968Z,11.20
2019-04-28T18:32:02.638Z,11.20
2019-04-28T18:34:48.173Z,11.20
2019-04-28T18:37:45.502Z,11.20
2019-04-28T18:40:32.444Z,11.20
2019-04-28T18:43:18.057Z,11.20
2019-04-28T18:45:55.350Z,11.20
2019-04-28T18:48:32.697Z,11.20
2019-04-28T18:51:10.168Z,11.20
2019-04-28T18:53:48.582Z,11.30
2019-04-28T18:56:26.521Z,11.20
2019-04-28T18:59:04.026Z,11.30
2019-04-28T19:02:01.198Z,11.30
2019-04-28T19:04:38.564Z,11.30
2019-04-28T19:07:19.972Z,11.30
2019-04-28T19:10:06.605Z,11.20
2019-04-28T19:12:57.582Z,11.20
2019-04-28T19:15:47.571Z,11.20
2019-04-28T19:18:29.681Z,11.10
2019-04-28T19:21:06.964Z,11.10
2019-04-28T19:23:44.637Z,11.10
2019-04-28T19:26:21.777Z,11.10
2019-04-28T19:28:59.232Z,11.00
2019-04-28T19:31:36.891Z,10.90
2019-04-28T19:34:14.581Z,10.90
2019-04-28T19:36:52.190Z,10.90
2019-04-28T19:39:29.787Z,10.90
2019-04-28T19:42:07.666Z,10.90
2019-04-28T19:44:45.920Z,10.90
2019-04-28T19:47:23.640Z,11.00
2019-04-28T19:50:01.731Z,10.90
2019-04-28T19:52:42.545Z,11.00
2019-04-28T19:55:26.849Z,11.00
2019-04-28T19:58:30.135Z,10.90
2019-04-28T20:01:14.958Z,10.90
2019-04-28T20:03:52.587Z,10.90
2019-04-28T20:06:30.446Z,10.90
2019-04-28T20:09:07.978Z,10.90
2019-04-28T20:11:46.773Z,10.90
2019-04-28T20:14:23.964Z,11.00
2019-04-28T20:17:02.371Z,10.90
2019-04-28T20:19:39.699Z,10.90
2019-04-28T20:22:17.071Z,10.90
2019-04-28T20:24:54.366Z,10.90
2019-04-28T20:27:32.114Z,10.90
2019-04-28T20:30:10.065Z,10.90
2019-04-28T20:32:48.556Z,10.80
2019-04-28T20:35:29.610Z,10.70
2019-04-28T20:38:16.932Z,10.80
2019-04-28T20:41:14.903Z,10.80
2019-04-28T20:43:52.978Z,10.80
2019-04-28T20:46:32.199Z,10.80
2019-04-28T20:49:09.556Z,10.80
2019-04-28T20:51:47.130Z,10.80
2019-04-28T20:54:25.172Z,10.80
2019-04-28T20:57:03.250Z,10.80
2019-04-28T20:59:41.915Z,10.70
2019-04-28T21:02:19.555Z,10.70
2019-04-28T21:04:57.285Z,10.60
2019-04-28T21:07:34.601Z,10.60
2019-04-28T21:10:13.004Z,10.60
2019-04-28T21:12:50.722Z,10.60
2019-04-28T21:15:28.144Z,10.60
2019-04-28T21:18:05.814Z,10.60
2019-04-28T21:20:43.113Z,10.50
2019-04-28T21:23:20.854Z,10.50
2019-04-28T21:25:58.218Z,10.50
2019-04-28T21:28:36.471Z,10.50
2019-04-28T21:31:13.787Z,10.50
2019-04-28T21:33:51.117Z,10.40
2019-04-28T21:36:28.393Z,10.40
2019-04-28T21:39:08.700Z,10.40
2019-04-28T21:41:47.535Z,10.40
2019-04-28T21:44:33.899Z,10.40
2019-04-28T21:47:20.228Z,10.40
2019-04-28T21:49:57.528Z,10.40
2019-04-28T21:52:34.817Z,10.40
2019-04-28T21:55:12.251Z,10.40
2019-04-28T21:57:49.969Z,10.40
2019-04-28T22:00:33.711Z,10.40
2019-04-28T22:03:28.473Z,10.50
2019-04-28T22:06:05.876Z,10.40
2019-04-28T22:08:43.665Z,10.40
2019-04-28T22:11:20.783Z,10.40
2019-04-28T22:13:58.028Z,10.40
2019-04-28T22:16:35.483Z,10.40
2019-04-28T22:19:13.787Z,10.40
2019-04-28T22:21:51.495Z,10.40
2019-04-28T22:24:47.820Z,10.40
2019-04-28T22:27:29.414Z,10.40
2019-04-28T22:30:08.094Z,10.40
2019-04-28T22:32:45.471Z,10.40
2019-04-28T22:35:22.554Z,10.30
2019-04-28T22:38:00.090Z,10.30
2019-04-28T22:40:37.581Z,10.30
2019-04-28T22:43:14.935Z,10.30
2019-04-28T22:45:52.113Z,10.30
2019-04-28T22:48:29.437Z,10.30
2019-04-28T22:51:07.029Z,10.40
2019-04-28T22:53:44.368Z,10.40
2019-04-28T22:56:41.930Z,10.40
2019-04-28T22:59:23.347Z,10.40
2019-04-28T23:02:04.351Z,10.40
2019-04-28T23:05:06.532Z,10.30
2019-04-28T23:07:43.875Z,10.30
2019-04-28T23:10:22.118Z,10.30
2019-04-28T23:12:59.734Z,10.30
2019-04-28T23:15:37.278Z,10.30
2019-04-28T23:18:14.660Z,10.30
2019-04-28T23:20:55.018Z,10.30
2019-04-28T23:23:32.254Z,10.30
2019-04-28T23:26:09.529Z,10.30
2019-04-28T23:28:46.850Z,10.30
2019-04-28T23:31:24.146Z,10.30
2019-04-28T23:34:01.762Z,10.30
2019-04-28T23:36:39.064Z,10.30
2019-04-28T23:39:16.726Z,10.30
2019-04-28T23:42:02.168Z,10.30
2019-04-28T23:44:41.318Z,10.30
2019-04-28T23:47:18.495Z,10.30
2019-04-28T23:49:55.785Z,10.30
2019-04-28T23:52:38.308Z,10.30
2019-04-28T23:55:15.953Z,10.30
2019-04-28T23:57:53.237Z,10.30
